sensor_id;sensor_type;location;lat;lon;timestamp;pressure;altitude;pressure_sealevel;temperature;humidity
11936;BME280;6027;48.576;9.180;2024-03-22T00:01:49;97566.75;;;10.26;100.00
11936;BME280;6027;48.576;9.180;2024-03-22T00:04:15;97569.75;;;10.31;100.00
11936;BME280;6027;48.576;9.180;2024-03-22T00:06:42;97566.13;;;10.32;100.00
11936;BME280;6027;48.576;9.180;2024-03-22T00:09:08;97572.88;;;10.26;100.00
11936;BME280;6027;48.576;9.180;2024-03-22T00:11:33;97571.22;;;10.25;100.00
11936;BME280;6027;48.576;9.180;2024-03-22T00:13:59;97564.47;;;10.31;100.00
11936;BME280;6027;48.576;9.180;2024-03-22T00:16:24;97560.94;;;10.14;100.00
11936;BME280;6027;48.576;9.180;2024-03-22T00:18:50;97558.47;;;10.21;100.00
11936;BME280;6027;48.576;9.180;2024-03-22T00:21:15;97550.72;;;10.19;100.00
11936;BME280;6027;48.576;9.180;2024-03-22T00:23:41;97554.50;;;10.17;100.00
11936;BME280;6027;48.576;9.180;2024-03-22T00:26:07;97559.31;;;10.21;100.00
11936;BME280;6027;48.576;9.180;2024-03-22T00:28:32;97561.41;;;10.10;100.00
11936;BME280;6027;48.576;9.180;2024-03-22T00:30:58;97559.91;;;9.99;100.00
11936;BME280;6027;48.576;9.180;2024-03-22T00:33:23;97558.56;;;9.95;100.00
11936;BME280;6027;48.576;9.180;2024-03-22T00:35:49;97549.66;;;9.96;100.00
11936;BME280;6027;48.576;9.180;2024-03-22T00:38:14;97562.69;;;9.81;100.00
11936;BME280;6027;48.576;9.180;2024-03-22T00:40:39;97557.13;;;9.58;100.00
11936;BME280;6027;48.576;9.180;2024-03-22T00:43:06;97556.78;;;9.53;100.00
11936;BME280;6027;48.576;9.180;2024-03-22T00:45:32;97557.97;;;9.59;100.00
11936;BME280;6027;48.576;9.180;2024-03-22T00:47:57;97548.84;;;9.53;100.00
11936;BME280;6027;48.576;9.180;2024-03-22T00:50:22;97554.44;;;9.50;100.00
11936;BME280;6027;48.576;9.180;2024-03-22T00:52:52;97536.94;;;9.49;100.00
11936;BME280;6027;48.576;9.180;2024-03-22T00:55:19;97536.94;;;9.49;100.00
11936;BME280;6027;48.576;9.180;2024-03-22T00:57:45;97538.91;;;9.47;100.00
11936;BME280;6027;48.576;9.180;2024-03-22T01:00:11;97537.56;;;9.43;100.00
11936;BME280;6027;48.576;9.180;2024-03-22T01:02:36;97535.25;;;9.40;100.00
11936;BME280;6027;48.576;9.180;2024-03-22T01:05:02;97540.28;;;9.25;100.00
11936;BME280;6027;48.576;9.180;2024-03-22T01:07:27;97543.06;;;9.16;100.00
11936;BME280;6027;48.576;9.180;2024-03-22T01:09:53;97535.22;;;9.06;100.00
11936;BME280;6027;48.576;9.180;2024-03-22T01:12:18;97528.41;;;8.95;100.00
11936;BME280;6027;48.576;9.180;2024-03-22T01:14:44;97528.69;;;8.84;100.00
11936;BME280;6027;48.576;9.180;2024-03-22T01:17:09;97524.69;;;8.80;100.00
11936;BME280;6027;48.576;9.180;2024-03-22T01:19:35;97515.09;;;8.79;100.00
11936;BME280;6027;48.576;9.180;2024-03-22T01:22:00;97515.09;;;8.79;100.00
11936;BME280;6027;48.576;9.180;2024-03-22T01:24:25;97514.88;;;8.73;100.00
11936;BME280;6027;48.576;9.180;2024-03-22T01:26:51;97503.50;;;8.72;100.00
11936;BME280;6027;48.576;9.180;2024-03-22T01:29:16;97501.84;;;8.71;100.00
11936;BME280;6027;48.576;9.180;2024-03-22T01:31:42;97505.03;;;8.57;100.00
11936;BME280;6027;48.576;9.180;2024-03-22T01:34:07;97500.13;;;8.62;100.00
11936;BME280;6027;48.576;9.180;2024-03-22T01:36:33;97509.66;;;8.55;100.00
11936;BME280;6027;48.576;9.180;2024-03-22T01:38:58;97509.50;;;8.56;100.00
11936;BME280;6027;48.576;9.180;2024-03-22T01:41:24;97504.06;;;8.58;100.00
11936;BME280;6027;48.576;9.180;2024-03-22T01:43:49;97508.06;;;8.62;100.00
11936;BME280;6027;48.576;9.180;2024-03-22T01:46:15;97496.44;;;8.55;100.00
11936;BME280;6027;48.576;9.180;2024-03-22T01:48:40;97487.31;;;8.49;100.00
11936;BME280;6027;48.576;9.180;2024-03-22T01:51:06;97478.91;;;8.46;100.00
11936;BME280;6027;48.576;9.180;2024-03-22T01:53:32;97493.03;;;8.37;100.00
11936;BME280;6027;48.576;9.180;2024-03-22T01:55:58;97487.59;;;8.38;100.00
11936;BME280;6027;48.576;9.180;2024-03-22T01:58:23;97486.22;;;8.34;100.00
11936;BME280;6027;48.576;9.180;2024-03-22T02:00:49;97475.28;;;8.29;100.00
11936;BME280;6027;48.576;9.180;2024-03-22T02:03:15;97481.38;;;8.29;100.00
11936;BME280;6027;48.576;9.180;2024-03-22T02:05:40;97479.06;;;8.26;100.00
11936;BME280;6027;48.576;9.180;2024-03-22T02:08:06;97479.38;;;8.23;100.00
11936;BME280;6027;48.576;9.180;2024-03-22T02:10:31;97472.72;;;8.19;100.00
11936;BME280;6027;48.576;9.180;2024-03-22T02:12:57;97472.78;;;8.27;100.00
11936;BME280;6027;48.576;9.180;2024-03-22T02:15:24;97478.75;;;8.29;100.00
11936;BME280;6027;48.576;9.180;2024-03-22T02:17:49;97473.78;;;8.26;100.00
11936;BME280;6027;48.576;9.180;2024-03-22T02:20:15;97464.88;;;8.27;100.00
11936;BME280;6027;48.576;9.180;2024-03-22T02:22:40;97464.72;;;8.29;100.00
11936;BME280;6027;48.576;9.180;2024-03-22T02:25:06;97461.44;;;8.09;100.00
11936;BME280;6027;48.576;9.180;2024-03-22T02:27:33;97460.94;;;8.06;100.00
11936;BME280;6027;48.576;9.180;2024-03-22T02:29:58;97458.34;;;7.96;100.00
11936;BME280;6027;48.576;9.180;2024-03-22T02:32:24;97453.75;;;7.98;100.00
11936;BME280;6027;48.576;9.180;2024-03-22T02:34:49;97451.81;;;8.00;100.00
11936;BME280;6027;48.576;9.180;2024-03-22T02:37:15;97454.59;;;7.98;100.00
11936;BME280;6027;48.576;9.180;2024-03-22T02:39:40;97452.94;;;7.97;100.00
11936;BME280;6027;48.576;9.180;2024-03-22T02:42:06;97448.19;;;8.01;100.00
11936;BME280;6027;48.576;9.180;2024-03-22T02:44:31;97446.00;;;7.96;100.00
11936;BME280;6027;48.576;9.180;2024-03-22T02:46:56;97448.50;;;7.98;100.00
11936;BME280;6027;48.576;9.180;2024-03-22T02:49:22;97443.81;;;7.92;100.00
11936;BME280;6027;48.576;9.180;2024-03-22T02:51:47;97444.66;;;7.92;100.00
11936;BME280;6027;48.576;9.180;2024-03-22T02:54:13;97438.25;;;7.95;100.00
11936;BME280;6027;48.576;9.180;2024-03-22T02:56:39;97442.97;;;7.91;100.00
11936;BME280;6027;48.576;9.180;2024-03-22T02:59:04;97438.25;;;7.95;100.00
11936;BME280;6027;48.576;9.180;2024-03-22T03:01:30;97440.16;;;7.85;100.00
11936;BME280;6027;48.576;9.180;2024-03-22T03:03:55;97438.69;;;7.73;100.00
11936;BME280;6027;48.576;9.180;2024-03-22T03:06:20;97437.66;;;7.48;100.00
11936;BME280;6027;48.576;9.180;2024-03-22T03:08:46;97445.09;;;7.52;100.00
11936;BME280;6027;48.576;9.180;2024-03-22T03:11:14;97438.16;;;7.51;100.00
11936;BME280;6027;48.576;9.180;2024-03-22T03:13:40;97434.19;;;7.47;100.00
11936;BME280;6027;48.576;9.180;2024-03-22T03:16:05;97424.81;;;7.35;100.00
11936;BME280;6027;48.576;9.180;2024-03-22T03:18:31;97427.00;;;7.40;100.00
11936;BME280;6027;48.576;9.180;2024-03-22T03:20:56;97421.06;;;7.38;100.00
11936;BME280;6027;48.576;9.180;2024-03-22T03:23:21;97425.66;;;7.36;100.00
11936;BME280;6027;48.576;9.180;2024-03-22T03:25:47;97416.34;;;7.14;100.00
11936;BME280;6027;48.576;9.180;2024-03-22T03:28:13;97426.16;;;7.21;100.00
11936;BME280;6027;48.576;9.180;2024-03-22T03:30:39;97412.69;;;7.24;100.00
11936;BME280;6027;48.576;9.180;2024-03-22T03:33:04;97417.81;;;7.26;100.00
11936;BME280;6027;48.576;9.180;2024-03-22T03:35:30;97411.59;;;7.27;100.00
11936;BME280;6027;48.576;9.180;2024-03-22T03:37:55;97414.91;;;7.29;100.00
11936;BME280;6027;48.576;9.180;2024-03-22T03:40:21;97406.59;;;7.24;100.00
11936;BME280;6027;48.576;9.180;2024-03-22T03:42:50;97415.09;;;7.18;100.00
11936;BME280;6027;48.576;9.180;2024-03-22T03:45:15;97405.63;;;7.25;100.00
11936;BME280;6027;48.576;9.180;2024-03-22T03:47:40;97413.69;;;7.23;100.00
11936;BME280;6027;48.576;9.180;2024-03-22T03:50:06;97403.44;;;7.20;100.00
11936;BME280;6027;48.576;9.180;2024-03-22T03:52:31;97414.75;;;7.31;100.00
11936;BME280;6027;48.576;9.180;2024-03-22T03:54:57;97412.78;;;7.33;100.00
11936;BME280;6027;48.576;9.180;2024-03-22T03:57:22;97406.31;;;7.27;100.00
11936;BME280;6027;48.576;9.180;2024-03-22T03:59:48;97403.81;;;7.25;100.00
11936;BME280;6027;48.576;9.180;2024-03-22T04:02:13;97404.41;;;7.19;100.00
11936;BME280;6027;48.576;9.180;2024-03-22T04:04:39;97394.69;;;7.20;100.00
11936;BME280;6027;48.576;9.180;2024-03-22T04:07:04;97397.09;;;7.13;100.00
11936;BME280;6027;48.576;9.180;2024-03-22T04:09:30;97402.91;;;7.17;100.00
11936;BME280;6027;48.576;9.180;2024-03-22T04:11:55;97396.50;;;7.19;100.00
11936;BME280;6027;48.576;9.180;2024-03-22T04:14:25;97396.66;;;7.18;100.00
11936;BME280;6027;48.576;9.180;2024-03-22T04:16:50;97389.88;;;7.15;100.00
11936;BME280;6027;48.576;9.180;2024-03-22T04:19:16;97391.53;;;7.16;100.00
11936;BME280;6027;48.576;9.180;2024-03-22T04:21:41;97395.53;;;7.20;100.00
11936;BME280;6027;48.576;9.180;2024-03-22T04:24:06;97403.00;;;7.25;100.00
11936;BME280;6027;48.576;9.180;2024-03-22T04:26:32;97402.09;;;7.34;100.00
11936;BME280;6027;48.576;9.180;2024-03-22T04:28:57;97404.72;;;7.34;100.00
11936;BME280;6027;48.576;9.180;2024-03-22T04:31:23;97392.22;;;7.36;100.00
11936;BME280;6027;48.576;9.180;2024-03-22T04:33:48;97394.88;;;7.36;100.00
11936;BME280;6027;48.576;9.180;2024-03-22T04:36:15;97398.63;;;7.34;100.00
11936;BME280;6027;48.576;9.180;2024-03-22T04:38:40;97402.69;;;7.28;100.00
11936;BME280;6027;48.576;9.180;2024-03-22T04:41:05;97395.63;;;7.28;100.00
11936;BME280;6027;48.576;9.180;2024-03-22T04:43:31;97404.25;;;7.21;100.00
11936;BME280;6027;48.576;9.180;2024-03-22T04:45:56;97398.84;;;7.22;100.00
11936;BME280;6027;48.576;9.180;2024-03-22T04:48:23;97400.50;;;7.23;100.00
11936;BME280;6027;48.576;9.180;2024-03-22T04:50:49;97399.25;;;7.27;100.00
11936;BME280;6027;48.576;9.180;2024-03-22T04:53:25;97396.13;;;7.32;100.00
11936;BME280;6027;48.576;9.180;2024-03-22T04:55:51;97396.66;;;7.36;100.00
11936;BME280;6027;48.576;9.180;2024-03-22T04:58:18;97397.22;;;7.39;100.00
11936;BME280;6027;48.576;9.180;2024-03-22T05:00:44;97400.38;;;7.43;100.00
11936;BME280;6027;48.576;9.180;2024-03-22T05:03:10;97406.31;;;7.45;100.00
11936;BME280;6027;48.576;9.180;2024-03-22T05:05:36;97411.06;;;7.41;100.00
11936;BME280;6027;48.576;9.180;2024-03-22T05:08:02;97405.34;;;7.46;100.00
11936;BME280;6027;48.576;9.180;2024-03-22T05:10:28;97406.88;;;7.48;100.00
11936;BME280;6027;48.576;9.180;2024-03-22T05:12:55;97397.50;;;7.54;100.00
11936;BME280;6027;48.576;9.180;2024-03-22T05:15:20;97404.28;;;7.56;100.00
11936;BME280;6027;48.576;9.180;2024-03-22T05:17:46;97403.25;;;7.49;100.00
11936;BME280;6027;48.576;9.180;2024-03-22T05:20:11;97403.00;;;7.43;100.00
11936;BME280;6027;48.576;9.180;2024-03-22T05:22:37;97401.50;;;7.40;100.00
11936;BME280;6027;48.576;9.180;2024-03-22T05:25:03;97397.75;;;7.43;100.00
11936;BME280;6027;48.576;9.180;2024-03-22T05:27:31;97393.22;;;7.35;100.00
11936;BME280;6027;48.576;9.180;2024-03-22T05:29:56;97390.81;;;7.24;100.00
11936;BME280;6027;48.576;9.180;2024-03-22T05:32:21;97386.81;;;7.20;100.00
11936;BME280;6027;48.576;9.180;2024-03-22T05:34:47;97397.13;;;6.86;100.00
11936;BME280;6027;48.576;9.180;2024-03-22T05:37:12;97402.94;;;6.52;100.00
11936;BME280;6027;48.576;9.180;2024-03-22T05:39:38;97398.72;;;6.32;100.00
11936;BME280;6027;48.576;9.180;2024-03-22T05:42:06;97393.19;;;6.16;100.00
11936;BME280;6027;48.576;9.180;2024-03-22T05:44:32;97394.97;;;6.35;100.00
11936;BME280;6027;48.576;9.180;2024-03-22T05:46:57;97395.75;;;6.45;100.00
11936;BME280;6027;48.576;9.180;2024-03-22T05:49:22;97390.78;;;6.42;100.00
11936;BME280;6027;48.576;9.180;2024-03-22T05:51:48;97391.63;;;6.42;100.00
11936;BME280;6027;48.576;9.180;2024-03-22T05:54:14;97383.16;;;6.48;100.00
11936;BME280;6027;48.576;9.180;2024-03-22T05:56:39;97388.09;;;6.61;100.00
11936;BME280;6027;48.576;9.180;2024-03-22T05:59:04;97382.81;;;6.61;100.00
11936;BME280;6027;48.576;9.180;2024-03-22T06:01:32;97379.16;;;6.44;100.00
11936;BME280;6027;48.576;9.180;2024-03-22T06:03:58;97379.69;;;6.48;100.00
11936;BME280;6027;48.576;9.180;2024-03-22T06:06:23;97376.66;;;6.43;100.00
11936;BME280;6027;48.576;9.180;2024-03-22T06:08:51;97379.84;;;6.37;100.00
11936;BME280;6027;48.576;9.180;2024-03-22T06:11:22;97374.88;;;6.43;100.00
11936;BME280;6027;48.576;9.180;2024-03-22T06:13:47;97367.13;;;6.42;100.00
11936;BME280;6027;48.576;9.180;2024-03-22T06:16:13;97369.47;;;6.45;100.00
11936;BME280;6027;48.576;9.180;2024-03-22T06:18:39;97363.50;;;6.43;100.00
11936;BME280;6027;48.576;9.180;2024-03-22T06:21:05;97361.84;;;6.42;100.00
11936;BME280;6027;48.576;9.180;2024-03-22T06:23:31;97358.69;;;6.38;100.00
11936;BME280;6027;48.576;9.180;2024-03-22T06:25:56;97358.09;;;6.44;100.00
11936;BME280;6027;48.576;9.180;2024-03-22T06:28:22;97358.78;;;6.46;100.00
11936;BME280;6027;48.576;9.180;2024-03-22T06:30:48;97360.72;;;6.54;100.00
11936;BME280;6027;48.576;9.180;2024-03-22T06:33:13;97350.41;;;6.61;100.00
11936;BME280;6027;48.576;9.180;2024-03-22T06:35:40;97349.00;;;6.66;100.00
11936;BME280;6027;48.576;9.180;2024-03-22T06:38:06;97354.34;;;6.74;100.00
11936;BME280;6027;48.576;9.180;2024-03-22T06:40:31;97358.34;;;6.78;100.00
11936;BME280;6027;48.576;9.180;2024-03-22T06:42:57;97350.63;;;6.77;100.00
11936;BME280;6027;48.576;9.180;2024-03-22T06:45:23;97351.53;;;6.85;100.00
11936;BME280;6027;48.576;9.180;2024-03-22T06:47:48;97353.59;;;6.91;100.00
11936;BME280;6027;48.576;9.180;2024-03-22T06:50:14;97352.41;;;7.04;100.00
11936;BME280;6027;48.576;9.180;2024-03-22T06:52:39;97352.50;;;7.12;100.00
11936;BME280;6027;48.576;9.180;2024-03-22T06:55:05;97353.16;;;7.14;100.00
11936;BME280;6027;48.576;9.180;2024-03-22T06:57:31;97350.91;;;7.19;100.00
11936;BME280;6027;48.576;9.180;2024-03-22T06:59:59;97346.09;;;7.32;100.00
11936;BME280;6027;48.576;9.180;2024-03-22T07:02:24;97343.53;;;7.40;100.00
11936;BME280;6027;48.576;9.180;2024-03-22T07:04:49;97347.53;;;7.44;100.00
11936;BME280;6027;48.576;9.180;2024-03-22T07:07:15;97341.00;;;7.48;100.00
11936;BME280;6027;48.576;9.180;2024-03-22T07:09:40;97347.59;;;7.52;100.00
11936;BME280;6027;48.576;9.180;2024-03-22T07:12:06;97339.31;;;7.65;100.00
11936;BME280;6027;48.576;9.180;2024-03-22T07:14:32;97349.63;;;7.76;100.00
11936;BME280;6027;48.576;9.180;2024-03-22T07:16:57;97349.16;;;7.81;100.00
11936;BME280;6027;48.576;9.180;2024-03-22T07:19:23;97345.59;;;7.90;100.00
11936;BME280;6027;48.576;9.180;2024-03-22T07:21:48;97340.31;;;8.08;100.00
11936;BME280;6027;48.576;9.180;2024-03-22T07:24:14;97328.25;;;8.05;100.00
11936;BME280;6027;48.576;9.180;2024-03-22T07:26:39;97332.47;;;8.24;100.00
11936;BME280;6027;48.576;9.180;2024-03-22T07:29:05;97331.66;;;8.23;100.00
11936;BME280;6027;48.576;9.180;2024-03-22T07:31:30;97338.03;;;8.39;100.00
11936;BME280;6027;48.576;9.180;2024-03-22T07:33:56;97326.69;;;8.46;100.00
11936;BME280;6027;48.576;9.180;2024-03-22T07:36:22;97321.75;;;8.51;100.00
11936;BME280;6027;48.576;9.180;2024-03-22T07:38:47;97324.28;;;8.69;100.00
11936;BME280;6027;48.576;9.180;2024-03-22T07:41:16;97319.88;;;8.78;100.00
11936;BME280;6027;48.576;9.180;2024-03-22T07:43:41;97326.00;;;8.78;100.00
11936;BME280;6027;48.576;9.180;2024-03-22T07:46:06;97331.78;;;8.90;100.00
11936;BME280;6027;48.576;9.180;2024-03-22T07:48:32;97328.19;;;8.99;100.00
11936;BME280;6027;48.576;9.180;2024-03-22T07:51:01;97327.88;;;9.10;100.00
11936;BME280;6027;48.576;9.180;2024-03-22T07:53:26;97315.53;;;9.19;100.00
11936;BME280;6027;48.576;9.180;2024-03-22T07:55:52;97317.69;;;9.31;100.00
11936;BME280;6027;48.576;9.180;2024-03-22T07:58:17;97313.06;;;9.50;100.00
11936;BME280;6027;48.576;9.180;2024-03-22T08:00:43;97314.56;;;9.68;100.00
11936;BME280;6027;48.576;9.180;2024-03-22T08:03:14;97310.09;;;9.93;100.00
11936;BME280;6027;48.576;9.180;2024-03-22T08:05:39;97306.75;;;10.16;100.00
11936;BME280;6027;48.576;9.180;2024-03-22T08:08:05;97311.03;;;10.33;100.00
11936;BME280;6027;48.576;9.180;2024-03-22T08:10:30;97306.69;;;10.48;100.00
11936;BME280;6027;48.576;9.180;2024-03-22T08:12:56;97302.00;;;10.58;100.00
11936;BME280;6027;48.576;9.180;2024-03-22T08:15:21;97316.03;;;10.75;100.00
11936;BME280;6027;48.576;9.180;2024-03-22T08:17:47;97311.38;;;10.77;100.00
11936;BME280;6027;48.576;9.180;2024-03-22T08:20:12;97303.44;;;10.77;100.00
11936;BME280;6027;48.576;9.180;2024-03-22T08:22:37;97310.00;;;10.81;100.00
11936;BME280;6027;48.576;9.180;2024-03-22T08:25:03;97304.91;;;11.11;100.00
11936;BME280;6027;48.576;9.180;2024-03-22T08:27:29;97316.88;;;11.29;100.00
11936;BME280;6027;48.576;9.180;2024-03-22T08:29:55;97314.22;;;11.29;100.00
11936;BME280;6027;48.576;9.180;2024-03-22T08:32:20;97312.97;;;11.40;100.00
11936;BME280;6027;48.576;9.180;2024-03-22T08:34:46;97314.47;;;11.42;100.00
11936;BME280;6027;48.576;9.180;2024-03-22T08:37:11;97305.56;;;11.58;100.00
11936;BME280;6027;48.576;9.180;2024-03-22T08:39:36;97301.03;;;11.90;100.00
11936;BME280;6027;48.576;9.180;2024-03-22T08:42:02;97300.03;;;12.05;100.00
11936;BME280;6027;48.576;9.180;2024-03-22T08:44:30;97292.44;;;12.17;100.00
11936;BME280;6027;48.576;9.180;2024-03-22T08:46:55;97292.38;;;12.25;100.00
11936;BME280;6027;48.576;9.180;2024-03-22T08:49:21;97284.22;;;12.41;100.00
11936;BME280;6027;48.576;9.180;2024-03-22T08:51:46;97277.81;;;12.51;100.00
11936;BME280;6027;48.576;9.180;2024-03-22T08:54:13;97279.91;;;12.70;100.00
11936;BME280;6027;48.576;9.180;2024-03-22T08:56:38;97274.09;;;12.81;100.00
11936;BME280;6027;48.576;9.180;2024-03-22T08:59:04;97270.44;;;12.82;100.00
11936;BME280;6027;48.576;9.180;2024-03-22T09:01:30;97270.09;;;13.06;100.00
11936;BME280;6027;48.576;9.180;2024-03-22T09:03:56;97265.59;;;13.22;100.00
11936;BME280;6027;48.576;9.180;2024-03-22T09:06:21;97268.44;;;13.41;98.74
11936;BME280;6027;48.576;9.180;2024-03-22T09:08:47;97266.97;;;13.39;96.73
11936;BME280;6027;48.576;9.180;2024-03-22T09:11:12;97260.91;;;13.45;96.83
11936;BME280;6027;48.576;9.180;2024-03-22T09:13:38;97257.59;;;13.64;96.63
11936;BME280;6027;48.576;9.180;2024-03-22T09:16:03;97249.81;;;13.91;96.33
11936;BME280;6027;48.576;9.180;2024-03-22T09:18:29;97257.28;;;14.02;89.97
11936;BME280;6027;48.576;9.180;2024-03-22T09:20:54;97252.41;;;14.12;87.21
11936;BME280;6027;48.576;9.180;2024-03-22T09:23:21;97252.59;;;14.10;89.08
11936;BME280;6027;48.576;9.180;2024-03-22T09:25:50;97241.38;;;14.15;90.51
11936;BME280;6027;48.576;9.180;2024-03-22T09:28:15;97251.91;;;14.30;88.45
11936;BME280;6027;48.576;9.180;2024-03-22T09:30:41;97231.94;;;14.40;87.35
11936;BME280;6027;48.576;9.180;2024-03-22T09:33:08;97243.78;;;14.38;80.94
11936;BME280;6027;48.576;9.180;2024-03-22T09:35:34;97231.28;;;14.38;81.19
11936;BME280;6027;48.576;9.180;2024-03-22T09:37:59;97237.28;;;14.47;82.37
11936;BME280;6027;48.576;9.180;2024-03-22T09:40:25;97228.69;;;14.51;80.43
11936;BME280;6027;48.576;9.180;2024-03-22T09:42:52;97218.94;;;14.72;83.47
11936;BME280;6027;48.576;9.180;2024-03-22T09:45:18;97218.28;;;14.63;79.30
11936;BME280;6027;48.576;9.180;2024-03-22T09:47:46;97201.09;;;14.72;80.81
11936;BME280;6027;48.576;9.180;2024-03-22T09:50:14;97209.13;;;14.85;80.30
11936;BME280;6027;48.576;9.180;2024-03-22T09:52:41;97206.91;;;15.02;76.06
11936;BME280;6027;48.576;9.180;2024-03-22T09:55:07;97208.41;;;15.25;76.41
11936;BME280;6027;48.576;9.180;2024-03-22T09:57:37;97203.28;;;15.36;76.12
11936;BME280;6027;48.576;9.180;2024-03-22T10:00:06;97201.00;;;15.40;75.77
11936;BME280;6027;48.576;9.180;2024-03-22T10:02:33;97189.94;;;15.36;72.43
11936;BME280;6027;48.576;9.180;2024-03-22T10:04:59;97181.94;;;15.30;74.42
11936;BME280;6027;48.576;9.180;2024-03-22T10:07:25;97183.38;;;15.39;69.36
11936;BME280;6027;48.576;9.180;2024-03-22T10:09:58;97174.94;;;15.22;68.29
11936;BME280;6027;48.576;9.180;2024-03-22T10:12:23;97182.06;;;14.89;68.39
11936;BME280;6027;48.576;9.180;2024-03-22T10:14:52;97170.38;;;14.83;69.81
11936;BME280;6027;48.576;9.180;2024-03-22T10:17:18;97173.25;;;14.88;67.79
11936;BME280;6027;48.576;9.180;2024-03-22T10:19:43;97168.56;;;15.03;73.40
11936;BME280;6027;48.576;9.180;2024-03-22T10:22:09;97172.50;;;15.34;65.27
11936;BME280;6027;48.576;9.180;2024-03-22T10:24:34;97162.03;;;15.45;66.82
11936;BME280;6027;48.576;9.180;2024-03-22T10:27:00;97157.09;;;15.49;63.94
11936;BME280;6027;48.576;9.180;2024-03-22T10:29:25;97151.81;;;15.56;63.22
11936;BME280;6027;48.576;9.180;2024-03-22T10:31:55;97156.06;;;15.50;59.39
11936;BME280;6027;48.576;9.180;2024-03-22T10:34:21;97146.84;;;15.52;68.49
11936;BME280;6027;48.576;9.180;2024-03-22T10:36:48;97141.09;;;15.49;64.17
11936;BME280;6027;48.576;9.180;2024-03-22T10:39:16;97143.75;;;15.42;66.19
11936;BME280;6027;48.576;9.180;2024-03-22T10:41:44;97138.84;;;15.39;62.93
11936;BME280;6027;48.576;9.180;2024-03-22T10:44:10;97134.94;;;15.42;63.78
11936;BME280;6027;48.576;9.180;2024-03-22T10:46:35;97128.97;;;15.53;68.12
11936;BME280;6027;48.576;9.180;2024-03-22T10:49:02;97123.66;;;15.60;64.11
11936;BME280;6027;48.576;9.180;2024-03-22T10:51:31;97120.38;;;15.77;62.82
11936;BME280;6027;48.576;9.180;2024-03-22T10:53:59;97116.63;;;15.78;64.50
11936;BME280;6027;48.576;9.180;2024-03-22T10:56:26;97111.91;;;15.94;63.70
11936;BME280;6027;48.576;9.180;2024-03-22T10:58:52;97099.16;;;15.96;62.62
11936;BME280;6027;48.576;9.180;2024-03-22T11:01:27;97103.22;;;15.98;60.20
11936;BME280;6027;48.576;9.180;2024-03-22T11:04:05;97092.47;;;16.18;57.88
11936;BME280;6027;48.576;9.180;2024-03-22T11:06:38;97085.72;;;16.15;60.15
11936;BME280;6027;48.576;9.180;2024-03-22T11:09:04;97086.56;;;16.09;56.42
11936;BME280;6027;48.576;9.180;2024-03-22T11:11:30;97088.59;;;16.14;58.56
11936;BME280;6027;48.576;9.180;2024-03-22T11:13:58;97080.28;;;16.35;62.67
11936;BME280;6027;48.576;9.180;2024-03-22T11:16:24;97086.63;;;16.41;58.70
11936;BME280;6027;48.576;9.180;2024-03-22T11:18:49;97075.00;;;16.22;55.02
11936;BME280;6027;48.576;9.180;2024-03-22T11:21:15;97070.78;;;16.39;56.85
11936;BME280;6027;48.576;9.180;2024-03-22T11:23:40;97066.97;;;16.60;54.62
11936;BME280;6027;48.576;9.180;2024-03-22T11:26:06;97072.53;;;16.58;55.43
11936;BME280;6027;48.576;9.180;2024-03-22T11:28:33;97063.47;;;16.66;53.92
11936;BME280;6027;48.576;9.180;2024-03-22T11:30:59;97059.72;;;16.74;56.17
11936;BME280;6027;48.576;9.180;2024-03-22T11:33:25;97058.41;;;16.83;54.37
11936;BME280;6027;48.576;9.180;2024-03-22T11:35:52;97054.00;;;16.95;55.31
11936;BME280;6027;48.576;9.180;2024-03-22T11:38:18;97057.72;;;16.94;54.05
11936;BME280;6027;48.576;9.180;2024-03-22T11:40:44;97046.00;;;16.64;54.07
11936;BME280;6027;48.576;9.180;2024-03-22T11:43:10;97048.47;;;16.58;56.36
11936;BME280;6027;48.576;9.180;2024-03-22T11:45:36;97046.53;;;16.41;55.05
11936;BME280;6027;48.576;9.180;2024-03-22T11:48:03;97034.06;;;16.59;56.35
11936;BME280;6027;48.576;9.180;2024-03-22T11:50:29;97034.31;;;16.89;54.88
11936;BME280;6027;48.576;9.180;2024-03-22T11:52:55;97033.72;;;17.12;54.73
11936;BME280;6027;48.576;9.180;2024-03-22T11:55:21;97028.84;;;17.27;55.04
11936;BME280;6027;48.576;9.180;2024-03-22T11:57:49;97024.69;;;17.32;53.38
11936;BME280;6027;48.576;9.180;2024-03-22T12:00:18;97024.75;;;17.43;51.21
11936;BME280;6027;48.576;9.180;2024-03-22T12:02:44;97020.50;;;17.54;51.99
11936;BME280;6027;48.576;9.180;2024-03-22T12:05:09;97009.00;;;17.72;51.77
11936;BME280;6027;48.576;9.180;2024-03-22T12:07:36;97011.97;;;17.64;51.05
11936;BME280;6027;48.576;9.180;2024-03-22T12:10:02;96996.66;;;17.71;49.66
11936;BME280;6027;48.576;9.180;2024-03-22T12:12:29;97007.41;;;17.89;51.75
11936;BME280;6027;48.576;9.180;2024-03-22T12:14:55;96998.59;;;18.00;52.17
11936;BME280;6027;48.576;9.180;2024-03-22T12:17:20;96995.47;;;18.03;50.37
11936;BME280;6027;48.576;9.180;2024-03-22T12:19:46;96991.81;;;17.98;51.35
11936;BME280;6027;48.576;9.180;2024-03-22T12:22:11;96985.84;;;17.95;52.80
11936;BME280;6027;48.576;9.180;2024-03-22T12:24:37;96980.59;;;17.89;49.75
11936;BME280;6027;48.576;9.180;2024-03-22T12:27:02;96980.38;;;17.72;48.34
11936;BME280;6027;48.576;9.180;2024-03-22T12:29:28;96964.78;;;17.69;47.35
11936;BME280;6027;48.576;9.180;2024-03-22T12:31:54;96956.72;;;17.87;51.45
11936;BME280;6027;48.576;9.180;2024-03-22T12:34:19;96961.94;;;17.82;49.73
11936;BME280;6027;48.576;9.180;2024-03-22T12:36:45;96952.47;;;17.80;47.92
11936;BME280;6027;48.576;9.180;2024-03-22T12:39:10;96949.84;;;17.91;48.89
11936;BME280;6027;48.576;9.180;2024-03-22T12:41:36;96942.09;;;18.02;46.66
11936;BME280;6027;48.576;9.180;2024-03-22T12:44:02;96939.06;;;17.98;47.62
11936;BME280;6027;48.576;9.180;2024-03-22T12:46:28;96935.84;;;18.08;45.82
11936;BME280;6027;48.576;9.180;2024-03-22T12:48:54;96931.78;;;18.17;48.70
11936;BME280;6027;48.576;9.180;2024-03-22T12:51:20;96929.94;;;18.29;47.61
11936;BME280;6027;48.576;9.180;2024-03-22T12:53:45;96923.75;;;18.28;44.47
11936;BME280;6027;48.576;9.180;2024-03-22T12:56:11;96917.13;;;18.31;47.93
11936;BME280;6027;48.576;9.180;2024-03-22T12:58:36;96913.59;;;18.19;47.37
11936;BME280;6027;48.576;9.180;2024-03-22T13:01:02;96916.56;;;17.99;47.24
11936;BME280;6027;48.576;9.180;2024-03-22T13:03:30;96912.25;;;17.98;46.57